createdAt,value
2022-12-31T00:02:28.592Z,4.48
2022-12-31T00:05:12.035Z,4.67
2022-12-31T00:07:56.574Z,4.76
2022-12-31T00:10:41.786Z,4.90
2022-12-31T00:13:24.875Z,4.97
2022-12-31T00:16:12.283Z,5.04
2022-12-31T00:18:59.293Z,5.14
2022-12-31T00:21:42.509Z,5.18
2022-12-31T00:24:31.066Z,5.36
2022-12-31T00:27:14.319Z,5.48
2022-12-31T00:30:04.119Z,5.58
2022-12-31T00:32:47.693Z,5.69
2022-12-31T00:35:30.908Z,5.77
2022-12-31T00:38:13.981Z,5.61
2022-12-31T00:40:58.378Z,5.74
2022-12-31T00:43:41.491Z,5.73
2022-12-31T00:46:25.259Z,5.55
2022-12-31T00:49:08.760Z,5.56
2022-12-31T00:51:51.830Z,5.60
2022-12-31T00:54:35.328Z,5.65
2022-12-31T00:57:19.700Z,5.61
2022-12-31T01:00:02.797Z,5.58
2022-12-31T01:02:46.066Z,5.60
2022-12-31T01:05:29.137Z,5.55
2022-12-31T01:08:12.214Z,5.50
2022-12-31T01:11:12.736Z,5.51
2022-12-31T01:13:59.266Z,5.56
2022-12-31T01:16:43.896Z,5.29
2022-12-31T01:19:30.414Z,5.30
2022-12-31T01:22:13.515Z,5.29
2022-12-31T01:24:56.611Z,5.13
2022-12-31T01:27:39.691Z,5.03
2022-12-31T01:30:24.208Z,4.91
2022-12-31T01:33:07.330Z,4.84
2022-12-31T01:35:50.822Z,4.76
2022-12-31T01:38:35.401Z,4.76
2022-12-31T01:41:21.556Z,4.69
2022-12-31T01:44:42.907Z,4.48
2022-12-31T01:47:36.849Z,4.43
2022-12-31T01:50:24.024Z,4.28
2022-12-31T01:53:09.694Z,4.07
2022-12-31T01:55:58.744Z,4.02
2022-12-31T01:58:45.012Z,4.00
2022-12-31T02:01:32.178Z,4.00
2022-12-31T02:04:17.781Z,3.99
2022-12-31T02:07:02.795Z,4.00
2022-12-31T02:09:45.991Z,4.03
2022-12-31T02:12:29.131Z,3.92
2022-12-31T02:15:12.697Z,3.90
2022-12-31T02:18:02.556Z,4.02
2022-12-31T02:21:20.708Z,4.02
2022-12-31T02:24:42.938Z,4.01
2022-12-31T02:27:42.550Z,4.06
2022-12-31T02:30:32.050Z,4.09
2022-12-31T02:33:20.807Z,4.17
2022-12-31T02:36:08.171Z,4.21
2022-12-31T02:38:51.467Z,4.22
2022-12-31T02:41:57.288Z,4.33
2022-12-31T02:44:42.430Z,4.43
2022-12-31T02:47:39.754Z,4.54
2022-12-31T02:50:34.742Z,4.58
2022-12-31T02:53:30.383Z,4.65
2022-12-31T02:56:20.972Z,4.60
2022-12-31T02:59:27.027Z,4.74
2022-12-31T03:02:17.230Z,4.84
2022-12-31T03:05:03.777Z,4.83
2022-12-31T03:07:47.481Z,4.85
2022-12-31T03:10:30.502Z,4.84
2022-12-31T03:13:12.479Z,4.80
2022-12-31T03:15:55.639Z,4.74
2022-12-31T03:18:52.444Z,4.71
2022-12-31T03:21:54.100Z,4.68
2022-12-31T03:24:54.956Z,4.58
2022-12-31T03:27:38.016Z,4.55
2022-12-31T03:30:23.162Z,4.53
2022-12-31T03:33:07.325Z,4.47
2022-12-31T03:35:51.076Z,4.46
2022-12-31T03:38:35.519Z,4.19
2022-12-31T03:41:18.508Z,4.23
2022-12-31T03:44:01.637Z,4.19
2022-12-31T03:46:44.681Z,4.17
2022-12-31T03:49:27.690Z,4.13
2022-12-31T03:52:10.652Z,4.05
2022-12-31T03:54:55.031Z,4.03
2022-12-31T03:57:38.142Z,4.00
2022-12-31T04:00:22.716Z,3.98
2022-12-31T04:03:05.856Z,3.88
2022-12-31T04:05:54.197Z,3.80
2022-12-31T04:08:37.320Z,3.76
2022-12-31T04:11:21.748Z,3.83
2022-12-31T04:14:04.788Z,3.65
2022-12-31T04:16:47.941Z,3.68
2022-12-31T04:19:32.469Z,3.58
2022-12-31T04:22:15.624Z,3.68
2022-12-31T04:24:58.671Z,3.69
2022-12-31T04:27:44.620Z,3.61
2022-12-31T04:30:27.703Z,3.51
2022-12-31T04:33:10.775Z,3.38
2022-12-31T04:35:53.795Z,3.17
2022-12-31T04:38:36.889Z,3.23
2022-12-31T04:41:20.883Z,3.19
2022-12-31T04:44:05.461Z,3.07
2022-12-31T04:46:48.742Z,3.09
2022-12-31T04:49:31.849Z,3.18
2022-12-31T04:52:14.950Z,3.08
2022-12-31T04:54:58.273Z,3.11
2022-12-31T04:57:42.846Z,2.88
2022-12-31T05:00:27.354Z,2.85
2022-12-31T05:03:10.430Z,2.69
2022-12-31T05:05:54.116Z,2.58
2022-12-31T05:08:37.174Z,2.67
2022-12-31T05:11:20.315Z,2.52
2022-12-31T05:14:03.310Z,2.46
2022-12-31T05:16:47.832Z,2.34
2022-12-31T05:19:30.927Z,2.27
2022-12-31T05:22:32.538Z,2.32
2022-12-31T05:25:15.917Z,2.32
2022-12-31T05:27:58.953Z,2.32
2022-12-31T05:30:42.248Z,2.28
2022-12-31T05:33:26.704Z,2.08
2022-12-31T05:36:09.994Z,2.19
2022-12-31T05:38:53.065Z,2.25
2022-12-31T05:41:36.098Z,2.18
2022-12-31T05:44:19.113Z,2.29
2022-12-31T05:47:02.216Z,2.29
2022-12-31T05:49:46.736Z,2.30
2022-12-31T05:52:30.079Z,2.35
2022-12-31T05:55:14.208Z,2.41
2022-12-31T05:57:57.226Z,2.37
2022-12-31T06:00:40.255Z,2.41
2022-12-31T06:03:23.291Z,2.41
2022-12-31T06:06:08.779Z,2.54
2022-12-31T06:08:51.953Z,2.58
2022-12-31T06:11:35.103Z,2.66
2022-12-31T06:14:18.315Z,2.72
2022-12-31T06:17:01.474Z,2.72
2022-12-31T06:19:44.494Z,2.81
2022-12-31T06:22:28.912Z,2.82
2022-12-31T06:25:11.973Z,2.98
2022-12-31T06:27:55.140Z,3.12
2022-12-31T06:30:38.792Z,3.26
2022-12-31T06:33:21.913Z,3.37
2022-12-31T06:36:07.067Z,3.47
2022-12-31T06:38:51.685Z,3.53
2022-12-31T06:41:34.795Z,3.55
2022-12-31T06:44:18.016Z,3.60
2022-12-31T06:47:01.202Z,3.75
2022-12-31T06:49:44.220Z,3.93
2022-12-31T06:52:27.361Z,4.06
2022-12-31T06:55:13.919Z,4.33
2022-12-31T06:57:57.694Z,4.54
2022-12-31T07:00:45.941Z,4.73
2022-12-31T07:03:38.056Z,5.04
2022-12-31T07:06:32.198Z,5.49
2022-12-31T07:09:23.531Z,8.45
2022-12-31T07:12:20.094Z,13.52
2022-12-31T07:15:13.513Z,17.60
2022-12-31T07:18:07.213Z,20.34
2022-12-31T07:20:50.816Z,22.52
2022-12-31T07:23:34.378Z,24.31
2022-12-31T07:26:25.077Z,25.55
2022-12-31T07:29:16.787Z,26.31
2022-12-31T07:32:09.910Z,27.10
2022-12-31T07:35:01.372Z,28.44
2022-12-31T07:37:54.176Z,29.67
2022-12-31T07:40:46.818Z,27.29
2022-12-31T07:43:37.730Z,27.80
2022-12-31T07:46:30.239Z,29.08
2022-12-31T07:49:15.044Z,28.19
2022-12-31T07:51:58.852Z,29.51
2022-12-31T07:54:41.934Z,30.69
2022-12-31T07:57:34.360Z,33.04
2022-12-31T08:00:18.049Z,31.20
2022-12-31T08:03:15.891Z,31.98
2022-12-31T08:06:09.671Z,32.66
2022-12-31T08:09:03.939Z,33.94
2022-12-31T08:11:55.693Z,30.93
2022-12-31T08:14:45.776Z,31.17
2022-12-31T08:17:29.579Z,32.73
2022-12-31T08:20:17.386Z,35.15
2022-12-31T08:23:21.479Z,37.37
2022-12-31T08:26:16.854Z,38.53
2022-12-31T08:29:12.964Z,38.91
2022-12-31T08:32:05.014Z,38.87
2022-12-31T08:34:57.749Z,39.36
2022-12-31T08:37:45.997Z,39.57
2022-12-31T08:40:34.930Z,40.52
2022-12-31T08:43:39.768Z,41.02
2022-12-31T08:46:27.592Z,41.41
2022-12-31T08:49:11.968Z,40.57
2022-12-31T08:51:55.676Z,41.97
2022-12-31T08:54:41.054Z,42.54
2022-12-31T08:57:31.239Z,42.01
2022-12-31T09:00:17.780Z,41.82
2022-12-31T09:03:28.846Z,41.61
2022-12-31T09:06:20.987Z,39.02
2022-12-31T09:09:12.033Z,39.02
2022-12-31T09:12:11.249Z,35.83
2022-12-31T09:15:01.891Z,32.52
2022-12-31T09:17:47.437Z,28.07
2022-12-31T09:20:42.858Z,27.78
2022-12-31T09:23:35.476Z,26.08
2022-12-31T09:26:36.554Z,24.54
2022-12-31T09:29:32.529Z,23.62
2022-12-31T09:32:26.627Z,21.61
2022-12-31T09:35:18.922Z,19.72
2022-12-31T09:38:11.628Z,18.77
2022-12-31T09:41:28.054Z,17.51
2022-12-31T09:44:49.801Z,16.38
2022-12-31T09:48:29.411Z,15.14
2022-12-31T09:51:30.132Z,14.96
2022-12-31T09:54:29.197Z,15.07
2022-12-31T09:57:36.234Z,16.07
2022-12-31T10:00:23.365Z,16.48
2022-12-31T10:03:35.708Z,18.03
2022-12-31T10:06:26.994Z,21.88
2022-12-31T10:09:37.634Z,27.73
2022-12-31T10:12:39.220Z,32.15
2022-12-31T10:15:55.069Z,35.37
2022-12-31T10:19:04.993Z,37.96
2022-12-31T10:22:03.602Z,39.05
2022-12-31T10:24:55.042Z,40.00
2022-12-31T10:27:53.259Z,40.80
2022-12-31T10:30:43.574Z,41.93
2022-12-31T10:33:39.396Z,42.13
2022-12-31T10:36:32.243Z,40.38
2022-12-31T10:39:29.419Z,39.36
2022-12-31T10:42:40.067Z,40.37
2022-12-31T10:45:47.641Z,41.90
2022-12-31T10:49:10.241Z,43.14
2022-12-31T10:52:34.536Z,39.78
2022-12-31T10:55:54.411Z,38.06
2022-12-31T10:59:08.995Z,35.85
2022-12-31T11:02:10.295Z,38.19
2022-12-31T11:05:41.496Z,41.57
2022-12-31T11:08:48.707Z,41.01
2022-12-31T11:11:46.325Z,41.50
2022-12-31T11:14:48.819Z,42.62
2022-12-31T11:17:47.009Z,41.84
2022-12-31T11:20:44.104Z,34.91
2022-12-31T11:23:37.236Z,39.77
2022-12-31T11:26:31.414Z,40.58
2022-12-31T11:29:44.447Z,41.74
2022-12-31T11:32:39.386Z,44.74
2022-12-31T11:35:31.353Z,45.00
2022-12-31T11:38:22.378Z,44.90
2022-12-31T11:41:11.283Z,43.71
2022-12-31T11:44:03.933Z,43.62
2022-12-31T11:47:06.639Z,44.57
2022-12-31T11:50:02.258Z,43.67
2022-12-31T11:52:59.079Z,43.62
2022-12-31T11:55:50.503Z,41.88
2022-12-31T11:58:33.709Z,36.54
2022-12-31T12:01:23.409Z,32.35
2022-12-31T12:04:06.830Z,29.20
2022-12-31T12:06:50.046Z,25.82
2022-12-31T12:09:36.843Z,24.70
2022-12-31T12:12:20.145Z,23.54
2022-12-31T12:15:09.618Z,22.23
2022-12-31T12:17:55.879Z,18.63
2022-12-31T12:20:41.305Z,18.15
2022-12-31T12:23:27.929Z,18.30
2022-12-31T12:26:29.676Z,18.01
2022-12-31T12:29:17.476Z,17.56
2022-12-31T12:32:03.167Z,16.86
2022-12-31T12:34:49.906Z,16.61
2022-12-31T12:37:37.095Z,16.35
2022-12-31T12:40:29.770Z,16.20
2022-12-31T12:43:25.148Z,15.61
2022-12-31T12:46:19.445Z,15.38
2022-12-31T12:49:04.379Z,15.15
2022-12-31T12:52:04.935Z,15.17
2022-12-31T12:55:05.353Z,15.04
2022-12-31T12:57:56.880Z,14.91
2022-12-31T13:00:50.177Z,14.77
2022-12-31T13:07:21.431Z,14.72
2022-12-31T13:10:24.947Z,14.72
2022-12-31T13:13:25.687Z,14.44
2022-12-31T13:16:18.002Z,14.49
2022-12-31T13:19:07.269Z,14.40
2022-12-31T13:21:55.092Z,14.34
2022-12-31T13:24:51.798Z,14.18
2022-12-31T13:27:39.041Z,14.27
2022-12-31T13:30:24.633Z,14.17
2022-12-31T13:33:17.896Z,14.07
2022-12-31T13:36:04.815Z,13.96
2022-12-31T13:38:52.655Z,13.94
2022-12-31T13:41:41.627Z,13.94
2022-12-31T13:44:30.076Z,13.82
2022-12-31T13:47:17.157Z,13.80
2022-12-31T13:50:14.255Z,13.69
2022-12-31T13:53:01.585Z,13.65
2022-12-31T13:55:56.687Z,13.65
2022-12-31T13:58:46.880Z,13.59
2022-12-31T14:01:35.817Z,13.52
2022-12-31T14:04:25.283Z,13.50
2022-12-31T14:07:16.080Z,13.36
2022-12-31T14:09:59.559Z,13.21
2022-12-31T14:12:53.172Z,13.13
2022-12-31T14:15:43.009Z,12.99
2022-12-31T14:18:34.679Z,12.86
2022-12-31T14:21:24.994Z,12.81
2022-12-31T14:24:15.744Z,12.70
2022-12-31T14:27:05.583Z,12.62
2022-12-31T14:29:54.281Z,12.50
2022-12-31T14:32:56.798Z,12.40
2022-12-31T14:35:53.670Z,12.29
2022-12-31T14:38:48.841Z,12.09
2022-12-31T14:41:46.236Z,11.93
2022-12-31T14:44:43.409Z,11.76
2022-12-31T14:47:38.769Z,11.61
2022-12-31T14:50:26.326Z,11.44
2022-12-31T14:53:18.378Z,11.24
2022-12-31T14:56:05.547Z,11.05
2022-12-31T14:58:58.407Z,10.91
2022-12-31T15:01:47.043Z,10.81
2022-12-31T15:04:35.399Z,10.62
2022-12-31T15:07:27.895Z,10.50
2022-12-31T15:10:22.805Z,10.38
2022-12-31T15:13:08.515Z,10.35
2022-12-31T15:16:15.920Z,10.16
2022-12-31T15:19:27.810Z,10.14
2022-12-31T15:22:32.572Z,9.94
2022-12-31T15:25:23.417Z,9.79
2022-12-31T15:28:09.276Z,9.78
2022-12-31T15:30:55.871Z,9.76
2022-12-31T15:33:42.080Z,9.69
2022-12-31T15:36:27.282Z,9.64
2022-12-31T15:39:28.249Z,9.54
2022-12-31T15:42:49.840Z,9.46
2022-12-31T15:45:38.458Z,9.36
2022-12-31T15:48:28.127Z,9.29
2022-12-31T15:51:17.756Z,9.29
2022-12-31T15:54:03.649Z,9.18
2022-12-31T15:56:48.714Z,9.13
2022-12-31T15:59:32.841Z,8.93
2022-12-31T16:02:22.663Z,8.97
2022-12-31T16:05:09.198Z,8.94
2022-12-31T16:07:55.887Z,8.85
2022-12-31T16:10:39.007Z,8.75
2022-12-31T16:13:25.408Z,8.63
2022-12-31T16:16:18.154Z,8.58
2022-12-31T16:22:09.077Z,8.42
2022-12-31T16:28:03.000Z,8.30
2022-12-31T16:30:46.569Z,8.24
2022-12-31T16:33:30.474Z,8.24
2022-12-31T16:36:21.745Z,8.27
2022-12-31T16:39:25.530Z,8.26
2022-12-31T16:42:20.160Z,8.24
2022-12-31T16:45:19.266Z,8.19
2022-12-31T16:48:13.008Z,8.12
2022-12-31T16:50:59.793Z,8.02
2022-12-31T16:53:43.718Z,7.81
2022-12-31T16:56:34.023Z,7.81
2022-12-31T17:02:23.107Z,7.66
2022-12-31T17:05:19.880Z,7.66
2022-12-31T17:08:24.114Z,7.63
2022-12-31T17:11:20.011Z,7.57
2022-12-31T17:14:15.313Z,7.46
2022-12-31T17:17:03.529Z,7.40
2022-12-31T17:19:51.599Z,7.53
2022-12-31T17:22:37.804Z,7.45
2022-12-31T17:25:24.990Z,7.47
2022-12-31T17:28:25.852Z,7.32
2022-12-31T17:31:33.281Z,7.37
2022-12-31T17:34:25.539Z,7.29
2022-12-31T17:37:28.905Z,7.18
2022-12-31T17:40:51.001Z,7.05
2022-12-31T17:43:37.088Z,7.04
2022-12-31T17:46:20.489Z,7.10
2022-12-31T17:49:04.708Z,7.03
2022-12-31T17:51:48.470Z,7.04
2022-12-31T17:54:33.165Z,7.03
2022-12-31T17:57:25.774Z,6.93
2022-12-31T18:00:17.649Z,7.08
2022-12-31T18:03:01.766Z,7.13
2022-12-31T18:05:45.019Z,7.07
2022-12-31T18:08:28.741Z,7.01
2022-12-31T18:11:17.555Z,6.99
2022-12-31T18:14:01.112Z,6.97
2022-12-31T18:16:44.833Z,6.98
2022-12-31T18:20:02.939Z,6.98
2022-12-31T18:22:31.523Z,7.00
2022-12-31T18:25:19.898Z,7.04
2022-12-31T18:28:12.160Z,7.06
2022-12-31T18:30:55.653Z,7.12
2022-12-31T18:33:42.209Z,7.09
2022-12-31T18:36:27.050Z,7.08
2022-12-31T18:39:11.372Z,7.09
2022-12-31T18:41:56.478Z,7.06
2022-12-31T18:44:41.397Z,7.01
2022-12-31T18:47:24.658Z,6.92
2022-12-31T18:50:09.754Z,6.98
2022-12-31T18:52:53.409Z,6.92
2022-12-31T18:55:40.526Z,6.84
2022-12-31T18:58:25.615Z,6.82
2022-12-31T19:01:27.300Z,6.79
2022-12-31T19:04:14.756Z,6.79
2022-12-31T19:06:58.736Z,6.65
2022-12-31T19:09:46.673Z,6.72
2022-12-31T19:12:30.691Z,6.63
2022-12-31T19:15:24.975Z,6.72
2022-12-31T19:18:11.248Z,6.67
2022-12-31T19:20:54.707Z,6.64
2022-12-31T19:23:38.011Z,6.67
2022-12-31T19:26:23.888Z,6.54
2022-12-31T19:29:16.240Z,6.62
2022-12-31T19:32:01.465Z,6.52
2022-12-31T19:34:46.508Z,6.49
2022-12-31T19:37:30.131Z,6.51
2022-12-31T19:40:16.660Z,6.41
2022-12-31T19:43:00.179Z,6.24
2022-12-31T19:45:47.284Z,6.34
2022-12-31T19:48:33.062Z,6.30
2022-12-31T19:51:20.848Z,6.26
2022-12-31T19:54:04.309Z,6.17
2022-12-31T19:56:47.543Z,6.13
2022-12-31T19:59:33.488Z,6.07
2022-12-31T20:02:16.914Z,5.88
2022-12-31T20:05:00.847Z,5.90
2022-12-31T20:07:46.074Z,5.82
2022-12-31T20:10:29.931Z,5.74
2022-12-31T20:13:13.837Z,5.66
2022-12-31T20:15:57.253Z,5.57
2022-12-31T20:18:44.718Z,5.44
2022-12-31T20:21:30.069Z,5.32
2022-12-31T20:24:14.666Z,5.31
2022-12-31T20:26:58.065Z,5.35
2022-12-31T20:29:41.522Z,5.40
2022-12-31T20:32:24.846Z,5.40
2022-12-31T20:35:09.129Z,5.38
2022-12-31T20:37:52.428Z,5.39
2022-12-31T20:40:42.891Z,5.51
2022-12-31T20:43:33.066Z,5.48
2022-12-31T20:46:20.077Z,5.45
2022-12-31T20:49:04.724Z,5.51
2022-12-31T20:51:52.062Z,5.57
2022-12-31T20:54:37.559Z,5.48
2022-12-31T20:57:22.307Z,5.34
2022-12-31T21:00:06.512Z,5.29
2022-12-31T21:02:57.877Z,5.21
2022-12-31T21:05:54.133Z,5.30
2022-12-31T21:08:37.779Z,5.23
2022-12-31T21:11:38.631Z,5.25
2022-12-31T21:14:26.327Z,5.06
2022-12-31T21:17:09.740Z,5.07
2022-12-31T21:19:53.114Z,5.12
2022-12-31T21:22:36.785Z,5.09
2022-12-31T21:25:20.108Z,5.10
2022-12-31T21:28:03.289Z,5.10
2022-12-31T21:30:48.641Z,5.01
2022-12-31T21:33:32.112Z,5.01
2022-12-31T21:36:16.081Z,5.09
2022-12-31T21:39:00.647Z,5.09
2022-12-31T21:41:54.442Z,5.04
2022-12-31T21:44:37.975Z,4.98
2022-12-31T21:47:47.162Z,5.06
2022-12-31T21:50:32.316Z,5.08
2022-12-31T21:53:21.829Z,4.97
2022-12-31T21:56:14.829Z,4.99
2022-12-31T21:59:15.886Z,4.86
2022-12-31T22:02:16.471Z,4.82
2022-12-31T22:05:02.692Z,4.76
2022-12-31T22:07:47.158Z,4.76
2022-12-31T22:10:34.942Z,4.41
2022-12-31T22:13:20.467Z,4.23
2022-12-31T22:16:05.774Z,4.31
2022-12-31T22:18:49.744Z,3.96
2022-12-31T22:21:34.395Z,4.18
2022-12-31T22:24:18.098Z,4.02
2022-12-31T22:27:28.234Z,4.01
2022-12-31T22:30:05.855Z,4.05
2022-12-31T22:32:49.533Z,4.08
2022-12-31T22:35:32.871Z,4.11
2022-12-31T22:38:17.441Z,4.18
2022-12-31T22:41:08.349Z,4.15
2022-12-31T22:44:00.238Z,4.09
2022-12-31T22:46:49.242Z,4.07
2022-12-31T22:49:32.714Z,4.16
2022-12-31T22:52:15.882Z,4.06
2022-12-31T22:55:00.540Z,4.10
2022-12-31T22:57:43.886Z,4.13
2022-12-31T23:00:39.762Z,4.17
2022-12-31T23:03:23.472Z,4.07
2022-12-31T23:06:06.882Z,4.37
2022-12-31T23:09:04.141Z,4.38
2022-12-31T23:11:48.840Z,4.41
2022-12-31T23:14:49.341Z,4.39
2022-12-31T23:17:51.072Z,4.50
2022-12-31T23:20:52.113Z,4.49
2022-12-31T23:23:35.473Z,4.37
2022-12-31T23:26:18.584Z,4.44
2022-12-31T23:29:03.721Z,4.35
2022-12-31T23:31:47.034Z,4.41
2022-12-31T23:34:30.585Z,4.34
2022-12-31T23:37:13.921Z,4.44
2022-12-31T23:39:58.116Z,4.47
2022-12-31T23:42:41.857Z,4.48
2022-12-31T23:45:32.679Z,4.44
2022-12-31T23:48:18.057Z,4.22
2022-12-31T23:51:01.807Z,4.36
2022-12-31T23:53:45.913Z,4.48
2022-12-31T23:56:29.417Z,4.58
2022-12-31T23:59:16.368Z,4.55
